Forside
METAR-TAF:

METAR-TAF

Lufthavne :

Manistee County-Blacker Airport

Manistee, Michigan, USA

Breddekreds: 44-16N, længdekreds: 086-15W, højde: 189 m

Aktuelle vejr

Denne rapport blev lavet for 58 minutter siden, kl. 00:56 UTC
Vind stille
Temperatur 20°C
Fugtighed 83%
Tryk 1013 hPa
Sigt: 9.7 km
skyfri
tåge/dis

METAR: KMBL 250056Z AUTO 00000KT 6SM HZ CLR 20/17 A2991 RMK AO2 SLP125 T02000167

Tid: 21:54 (01:54 UTC)

Vejrudsigter

Denne rapport blev lavet for 2 timer og 34 minutter siden, kl. 23:20 UTC
Foreløbig gælder fra 25 på 00 UTC til 25 på 24 UTC
Vind 3 kt fra varierende retninger
Sigt: 10 km
Spredte skyer i en højde af 18000 ft
Fra 25 på 1200 UTC
Vind 5 kt fra sydsydøst
Sigt: 10 km
Brudte skyer i en højde af 25000 ft
Fra 25 på 1400 UTC
Vind 7 kt fra syd
Sigt: 10 km
Brudte skyer i en højde af 20000 ft
Fra 25 på 1900 UTC
Vind 9 kt fra sydsydvest
Sigt: 10 km
Spredte skyer i en højde af 5000 ft

TAF: KMBL 242320Z 2500/2524 VRB03KT P6SM SCT180 FM251200 16005KT P6SM BKN250 FM251400 19007KT P6SM BKN200 FM251900 21009KT P6SM SCT050

Vejrobservationer og prognoser fra mere end 4000 lufthavne (METAR og TAF).

De gule og røde prikker repræsenterer de meteorologiske stationer.

Flyt musen over at se navnet på stationen.

Så klik over at se vejr observationer og prognoser.

At skifte det kort: Klik på de grønne knapper med et sort kors for at zoome ind; på den grønne knap med en bindestreg for at zoome ud; eller på de grønne pile for tilstødende kort.


METAR-TAF: